createdAt,value
2018-12-21T00:02:14.631Z,71.15
2018-12-21T00:04:42.093Z,70.93
2018-12-21T00:07:09.639Z,70.84
2018-12-21T00:09:37.404Z,70.92
2018-12-21T00:12:05.097Z,70.88
2018-12-21T00:14:32.538Z,70.40
2018-12-21T00:16:59.992Z,70.51
2018-12-21T00:19:27.376Z,70.08
2018-12-21T00:21:54.773Z,70.35
2018-12-21T00:24:22.156Z,70.42
2018-12-21T00:26:49.756Z,70.47
2018-12-21T00:29:17.184Z,70.38
2018-12-21T00:31:50.124Z,70.35
2018-12-21T00:34:23.019Z,70.70
2018-12-21T00:36:56.012Z,70.72
2018-12-21T00:39:28.921Z,70.64
2018-12-21T00:41:55.790Z,70.76
2018-12-21T00:44:25.196Z,70.23
2018-12-21T00:46:54.604Z,70.38
2018-12-21T00:49:23.446Z,70.37
2018-12-21T00:51:50.909Z,70.49
2018-12-21T00:54:18.394Z,70.42
2018-12-21T00:56:45.836Z,70.27
2018-12-21T00:59:13.326Z,70.18
2018-12-21T01:01:40.785Z,70.00
2018-12-21T01:04:08.186Z,70.37
2018-12-21T01:06:35.642Z,70.39
2018-12-21T01:09:03.732Z,70.13
2018-12-21T01:11:31.168Z,69.93
2018-12-21T01:13:58.745Z,70.16
2018-12-21T01:16:26.205Z,70.18
2018-12-21T01:18:54.061Z,69.84
2018-12-21T01:21:21.900Z,69.56
2018-12-21T01:23:49.345Z,69.84
2018-12-21T01:26:16.731Z,69.98
2018-12-21T01:28:44.226Z,69.85
2018-12-21T01:31:11.761Z,69.21
2018-12-21T01:33:39.205Z,69.71
2018-12-21T01:36:06.681Z,69.31
2018-12-21T01:38:34.112Z,69.40
2018-12-21T01:41:02.005Z,69.51
2018-12-21T01:43:29.464Z,69.96
2018-12-21T01:45:57.095Z,69.63
2018-12-21T01:48:24.720Z,69.48
2018-12-21T01:50:52.242Z,69.51
2018-12-21T01:53:20.113Z,69.29
2018-12-21T01:55:47.551Z,69.24
2018-12-21T01:58:14.945Z,69.01
2018-12-21T02:00:42.375Z,68.87
2018-12-21T02:03:09.850Z,68.93
2018-12-21T02:05:37.399Z,69.25
2018-12-21T02:08:04.917Z,68.88
2018-12-21T02:10:32.312Z,69.27
2018-12-21T02:12:59.713Z,68.89
2018-12-21T02:15:27.609Z,68.48
2018-12-21T02:17:55.052Z,68.85
2018-12-21T02:20:22.553Z,68.75
2018-12-21T02:22:50.013Z,68.47
2018-12-21T02:25:17.497Z,68.77
2018-12-21T02:27:45.060Z,68.77
2018-12-21T02:30:12.539Z,68.61
2018-12-21T02:32:40.254Z,68.54
2018-12-21T02:35:07.709Z,68.58
2018-12-21T02:37:35.097Z,68.41
2018-12-21T02:40:03.776Z,68.16
2018-12-21T02:42:31.725Z,68.18
2018-12-21T02:44:59.113Z,68.73
2018-12-21T02:47:26.505Z,68.09
2018-12-21T02:49:54.092Z,68.60
2018-12-21T02:52:21.480Z,68.42
2018-12-21T02:54:49.078Z,68.03
2018-12-21T02:57:16.469Z,68.30
2018-12-21T02:59:43.858Z,68.11
2018-12-21T03:02:11.378Z,68.16
2018-12-21T03:04:38.973Z,68.29
2018-12-21T03:07:06.696Z,68.31
2018-12-21T03:09:34.233Z,68.25
2018-12-21T03:12:02.023Z,68.39
2018-12-21T03:14:29.521Z,68.08
2018-12-21T03:16:56.985Z,68.06
2018-12-21T03:19:24.434Z,68.50
2018-12-21T03:21:52.114Z,68.92
2018-12-21T03:24:19.550Z,69.41
2018-12-21T03:26:47.101Z,69.32
2018-12-21T03:29:14.494Z,69.40
2018-12-21T03:31:42.100Z,69.53
2018-12-21T03:34:09.602Z,69.34
2018-12-21T03:36:37.127Z,69.19
2018-12-21T03:39:07.282Z,69.35
2018-12-21T03:41:36.021Z,69.24
2018-12-21T03:44:03.497Z,69.37
2018-12-21T03:46:31.344Z,69.08
2018-12-21T03:48:58.942Z,69.11
2018-12-21T03:51:26.511Z,69.32
2018-12-21T03:53:54.116Z,69.11
2018-12-21T03:56:21.577Z,69.51
2018-12-21T03:58:48.973Z,69.29
2018-12-21T04:01:16.561Z,69.15
2018-12-21T04:03:44.094Z,69.18
2018-12-21T04:06:11.821Z,69.35
2018-12-21T04:08:39.277Z,69.28
2018-12-21T04:11:06.655Z,69.16
2018-12-21T04:13:34.060Z,69.51
2018-12-21T04:16:01.452Z,69.30
2018-12-21T04:18:29.104Z,69.19
2018-12-21T04:20:56.565Z,69.53
2018-12-21T04:23:24.438Z,69.78
2018-12-21T04:25:51.894Z,70.76
2018-12-21T04:28:19.479Z,71.25
2018-12-21T04:30:46.873Z,72.75
2018-12-21T04:33:14.410Z,73.23
2018-12-21T04:35:42.130Z,74.01
2018-12-21T04:38:10.949Z,74.07
2018-12-21T04:40:38.354Z,74.74
2018-12-21T04:43:05.808Z,74.93
2018-12-21T04:45:33.216Z,74.79
2018-12-21T04:48:00.683Z,74.75
2018-12-21T04:50:28.102Z,75.02
2018-12-21T04:52:55.569Z,74.62
2018-12-21T04:55:23.166Z,74.66
2018-12-21T04:57:50.563Z,75.07
2018-12-21T05:00:18.074Z,75.69
2018-12-21T05:02:45.469Z,76.56
2018-12-21T05:05:12.874Z,76.61
2018-12-21T05:07:40.261Z,77.16
2018-12-21T05:10:08.194Z,77.84
2018-12-21T05:12:35.974Z,78.19
2018-12-21T05:15:04.249Z,78.55
2018-12-21T05:17:31.640Z,78.95
2018-12-21T05:19:59.634Z,79.19
2018-12-21T05:22:27.091Z,79.67
2018-12-21T05:24:54.495Z,80.12
2018-12-21T05:27:22.432Z,80.14
2018-12-21T05:29:49.846Z,80.15
2018-12-21T05:32:17.331Z,80.27
2018-12-21T05:34:45.177Z,80.47
2018-12-21T05:37:12.799Z,80.96
2018-12-21T05:39:40.286Z,80.98
2018-12-21T05:42:07.667Z,81.05
2018-12-21T05:44:35.058Z,81.35
2018-12-21T05:47:02.901Z,81.31
2018-12-21T05:49:30.284Z,81.45
2018-12-21T05:51:57.821Z,81.35
2018-12-21T05:54:25.513Z,81.37
2018-12-21T05:56:52.910Z,81.72
2018-12-21T05:59:20.598Z,81.76
2018-12-21T06:01:48.050Z,81.52
2018-12-21T06:04:15.588Z,81.47
2018-12-21T06:06:42.992Z,81.50
2018-12-21T06:09:10.382Z,81.65
2018-12-21T06:11:37.778Z,81.59
2018-12-21T06:14:05.169Z,81.65
2018-12-21T06:16:32.571Z,81.85
2018-12-21T06:18:59.951Z,81.92
2018-12-21T06:21:27.422Z,81.82
2018-12-21T06:23:54.836Z,82.00
2018-12-21T06:26:22.226Z,82.27
2018-12-21T06:28:49.818Z,81.97
2018-12-21T06:31:17.636Z,82.23
2018-12-21T06:33:45.311Z,82.29
2018-12-21T06:36:12.720Z,82.49
2018-12-21T06:38:40.378Z,82.60
2018-12-21T06:41:07.813Z,82.45
2018-12-21T06:43:35.598Z,82.40
2018-12-21T06:46:03.104Z,82.03
2018-12-21T06:48:30.561Z,82.35
2018-12-21T06:50:58.150Z,82.35
2018-12-21T06:53:25.617Z,82.17
2018-12-21T06:55:53.005Z,82.24
2018-12-21T06:58:20.530Z,82.55
2018-12-21T07:00:48.005Z,82.22
2018-12-21T07:03:17.238Z,82.32
2018-12-21T07:05:44.951Z,82.46
2018-12-21T07:08:12.342Z,82.20
2018-12-21T07:10:40.129Z,82.29
2018-12-21T07:13:07.521Z,82.48
2018-12-21T07:15:35.462Z,82.65
2018-12-21T07:18:03.002Z,82.54
2018-12-21T07:20:30.388Z,82.62
2018-12-21T07:22:57.970Z,82.63
2018-12-21T07:25:25.709Z,82.83
2018-12-21T07:27:53.368Z,82.71
2018-12-21T07:30:20.760Z,82.61
2018-12-21T07:32:48.146Z,82.74
2018-12-21T07:35:15.662Z,82.67
2018-12-21T07:37:43.394Z,82.69
2018-12-21T07:40:10.852Z,82.40
2018-12-21T07:42:38.446Z,82.42
2018-12-21T07:45:08.158Z,82.76
2018-12-21T07:47:35.685Z,82.79
2018-12-21T07:50:03.275Z,82.76
2018-12-21T07:52:30.803Z,82.77
2018-12-21T07:54:58.184Z,82.89
2018-12-21T07:57:25.620Z,82.86
2018-12-21T07:59:53.378Z,82.57
2018-12-21T08:02:20.821Z,82.86
2018-12-21T08:04:48.361Z,82.62
2018-12-21T08:07:16.157Z,82.88
2018-12-21T08:09:43.549Z,82.94
2018-12-21T08:12:11.237Z,83.18
2018-12-21T08:14:38.772Z,83.37
2018-12-21T08:17:06.167Z,83.60
2018-12-21T08:19:33.564Z,83.22
2018-12-21T08:22:00.981Z,83.13
2018-12-21T08:24:28.448Z,83.20
2018-12-21T08:26:56.235Z,83.13
2018-12-21T08:29:23.699Z,83.07
2018-12-21T08:31:51.281Z,83.37
2018-12-21T08:34:19.004Z,83.70
2018-12-21T08:36:46.402Z,83.49
2018-12-21T08:39:13.934Z,83.62
2018-12-21T08:41:41.381Z,83.87
2018-12-21T08:44:09.168Z,83.63
2018-12-21T08:46:36.630Z,83.57
2018-12-21T08:49:04.037Z,83.74
2018-12-21T08:51:31.601Z,83.95
2018-12-21T08:53:59.033Z,84.01
2018-12-21T08:56:26.425Z,83.70
2018-12-21T08:58:53.996Z,83.82
2018-12-21T09:01:21.462Z,83.58
2018-12-21T09:03:48.915Z,83.80
2018-12-21T09:06:18.582Z,83.58
2018-12-21T09:08:46.195Z,83.58
2018-12-21T09:11:13.617Z,83.78
2018-12-21T09:13:41.002Z,83.79
2018-12-21T09:16:08.486Z,83.66
2018-12-21T09:18:36.108Z,83.73
2018-12-21T09:21:03.557Z,83.68
2018-12-21T09:23:31.025Z,83.82
2018-12-21T09:25:58.771Z,83.58
2018-12-21T09:28:26.308Z,83.69
2018-12-21T09:30:53.934Z,83.78
2018-12-21T09:33:21.334Z,83.78
2018-12-21T09:35:48.945Z,83.75
2018-12-21T09:38:16.381Z,83.77
2018-12-21T09:40:44.049Z,83.99
2018-12-21T09:43:11.436Z,84.03
2018-12-21T09:45:38.957Z,84.35
2018-12-21T09:48:06.626Z,83.99
2018-12-21T09:50:34.011Z,84.25
2018-12-21T09:53:01.401Z,83.97
2018-12-21T09:55:28.996Z,84.17
2018-12-21T09:57:56.531Z,84.29
2018-12-21T10:00:24.000Z,84.52
2018-12-21T10:02:51.396Z,84.37
2018-12-21T10:05:19.032Z,84.64
2018-12-21T10:07:46.498Z,84.67
2018-12-21T10:10:14.316Z,84.86
2018-12-21T10:12:41.814Z,84.36
2018-12-21T10:15:09.246Z,84.38
2018-12-21T10:17:36.684Z,84.38
2018-12-21T10:20:05.964Z,84.34
2018-12-21T10:22:33.416Z,84.38
2018-12-21T10:25:01.390Z,84.21
2018-12-21T10:27:29.012Z,84.43
2018-12-21T10:29:56.420Z,84.11
2018-12-21T10:32:23.807Z,84.17
2018-12-21T10:34:51.252Z,83.98
2018-12-21T10:37:18.737Z,84.20
2018-12-21T10:39:46.233Z,84.10
2018-12-21T10:42:13.870Z,84.30
2018-12-21T10:44:41.416Z,84.07
2018-12-21T10:47:08.797Z,83.94
2018-12-21T10:49:36.185Z,83.92
2018-12-21T10:52:03.766Z,83.86
2018-12-21T10:54:31.308Z,83.60
2018-12-21T10:56:58.729Z,83.96
2018-12-21T10:59:26.362Z,83.61
2018-12-21T11:01:53.760Z,83.56
2018-12-21T11:04:21.348Z,83.81
2018-12-21T11:06:48.919Z,83.62
2018-12-21T11:09:16.845Z,83.73
2018-12-21T11:11:44.218Z,83.94
2018-12-21T11:14:11.649Z,83.97
2018-12-21T11:16:39.198Z,84.31
2018-12-21T11:19:06.669Z,84.53
2018-12-21T11:21:34.109Z,84.44
2018-12-21T11:24:01.585Z,84.95
2018-12-21T11:26:29.052Z,85.23
2018-12-21T11:28:56.486Z,84.82
2018-12-21T11:31:24.055Z,83.50
2018-12-21T11:33:51.533Z,82.58
2018-12-21T11:36:19.037Z,81.33
2018-12-21T11:38:46.519Z,81.00
2018-12-21T11:41:14.189Z,80.04
2018-12-21T11:43:41.760Z,79.54
2018-12-21T11:46:09.504Z,78.75
2018-12-21T11:48:36.973Z,78.57
2018-12-21T11:51:04.367Z,78.17
2018-12-21T11:53:32.281Z,77.30
2018-12-21T11:55:59.684Z,77.52
2018-12-21T11:58:27.236Z,77.27
2018-12-21T12:00:54.797Z,76.91
2018-12-21T12:03:22.187Z,76.61
2018-12-21T12:05:49.716Z,76.34
2018-12-21T12:08:17.110Z,76.20
2018-12-21T12:10:44.586Z,76.11
2018-12-21T12:13:12.365Z,75.62
2018-12-21T12:15:40.222Z,75.60
2018-12-21T12:18:07.609Z,76.29
2018-12-21T12:20:35.287Z,75.78
2018-12-21T12:23:02.800Z,75.43
2018-12-21T12:25:30.185Z,75.12
2018-12-21T12:27:57.704Z,75.26
2018-12-21T12:30:25.168Z,74.74
2018-12-21T12:32:52.875Z,74.89
2018-12-21T12:35:20.317Z,74.36
2018-12-21T12:37:47.714Z,74.19
2018-12-21T12:40:15.405Z,73.93
2018-12-21T12:42:43.250Z,72.93
2018-12-21T12:45:10.734Z,73.51
2018-12-21T12:47:38.119Z,72.87
2018-12-21T12:50:06.009Z,72.40
2018-12-21T12:52:33.472Z,71.88
2018-12-21T12:55:02.587Z,72.27
2018-12-21T12:57:30.354Z,72.19
2018-12-21T12:59:57.821Z,72.48
2018-12-21T13:02:25.388Z,72.02
2018-12-21T13:04:52.889Z,71.15
2018-12-21T13:07:20.300Z,71.39
2018-12-21T13:09:47.714Z,71.50
2018-12-21T13:12:15.224Z,70.75
2018-12-21T13:14:42.804Z,70.84
2018-12-21T13:17:10.577Z,70.98
2018-12-21T13:19:38.004Z,71.37
2018-12-21T13:22:05.458Z,71.28
2018-12-21T13:24:34.078Z,71.34
2018-12-21T13:27:01.807Z,71.12
2018-12-21T13:29:29.266Z,71.16
2018-12-21T13:31:56.950Z,71.20
2018-12-21T13:34:24.465Z,69.88
2018-12-21T13:36:51.853Z,69.03
2018-12-21T13:39:19.255Z,68.61
2018-12-21T13:41:46.684Z,69.32
2018-12-21T13:44:14.181Z,68.42
2018-12-21T13:46:41.588Z,68.62
2018-12-21T13:49:09.103Z,67.88
2018-12-21T13:51:36.789Z,67.92
2018-12-21T13:54:04.264Z,67.46
2018-12-21T13:56:31.836Z,66.93
2018-12-21T13:58:59.260Z,67.03
2018-12-21T14:01:27.182Z,66.25
2018-12-21T14:03:54.577Z,65.74
2018-12-21T14:06:21.993Z,66.10
2018-12-21T14:08:49.399Z,65.62
2018-12-21T14:11:16.884Z,65.47
2018-12-21T14:13:44.651Z,65.79
2018-12-21T14:16:12.505Z,65.26
2018-12-21T14:18:40.299Z,65.68
2018-12-21T14:21:07.940Z,65.57
2018-12-21T14:23:35.378Z,65.09
2018-12-21T14:26:02.927Z,64.43
2018-12-21T14:28:30.493Z,64.37
2018-12-21T14:30:58.328Z,64.40
2018-12-21T14:33:25.733Z,63.47
2018-12-21T14:35:53.450Z,62.98
2018-12-21T14:38:20.865Z,63.59
2018-12-21T14:40:48.823Z,62.87
2018-12-21T14:43:17.061Z,62.44
2018-12-21T14:45:44.642Z,61.55
2018-12-21T14:48:12.188Z,62.42
2018-12-21T14:50:39.564Z,62.80
2018-12-21T14:53:06.988Z,62.84
2018-12-21T14:55:37.638Z,62.83
2018-12-21T14:58:04.415Z,63.23
2018-12-21T15:00:31.926Z,63.60
2018-12-21T15:02:59.430Z,63.85
2018-12-21T15:05:26.881Z,63.02
2018-12-21T15:07:54.341Z,63.22
2018-12-21T15:10:22.024Z,62.77
2018-12-21T15:12:49.435Z,62.05
2018-12-21T15:15:16.914Z,62.24
2018-12-21T15:17:44.364Z,62.33
2018-12-21T15:20:11.878Z,61.86
2018-12-21T15:22:39.425Z,61.30
2018-12-21T15:25:07.133Z,60.58
2018-12-21T15:27:35.801Z,60.83
2018-12-21T15:30:04.503Z,60.40
2018-12-21T15:32:31.996Z,60.07
2018-12-21T15:35:00.203Z,58.38
2018-12-21T15:37:27.736Z,58.60
2018-12-21T15:39:55.113Z,57.25
2018-12-21T15:42:22.579Z,57.49
2018-12-21T15:44:50.097Z,57.28
2018-12-21T15:47:18.565Z,56.31
2018-12-21T15:49:46.339Z,55.95
2018-12-21T15:52:14.130Z,55.37
2018-12-21T15:54:41.533Z,55.93
2018-12-21T15:57:08.921Z,55.69
2018-12-21T15:59:36.625Z,56.17
2018-12-21T16:02:04.198Z,56.04
2018-12-21T16:04:32.666Z,56.34
2018-12-21T16:07:00.465Z,56.51
2018-12-21T16:09:27.933Z,56.97
2018-12-21T16:11:55.341Z,56.95
2018-12-21T16:14:22.773Z,56.81
2018-12-21T16:16:50.384Z,56.87
2018-12-21T16:19:17.852Z,56.01
2018-12-21T16:21:45.217Z,56.26
2018-12-21T16:24:12.693Z,56.39
2018-12-21T16:26:40.221Z,56.93
2018-12-21T16:29:07.733Z,56.58
2018-12-21T16:31:35.126Z,57.01
2018-12-21T16:34:02.920Z,57.29
2018-12-21T16:36:30.433Z,57.65
2018-12-21T16:38:57.868Z,58.05
2018-12-21T16:41:25.260Z,57.73
2018-12-21T16:43:52.802Z,58.22
2018-12-21T16:46:20.257Z,58.11
2018-12-21T16:48:47.662Z,58.70
2018-12-21T16:51:15.211Z,58.52
2018-12-21T16:53:42.792Z,58.28
2018-12-21T16:56:12.666Z,58.96
2018-12-21T16:58:39.949Z,59.02
2018-12-21T17:01:07.378Z,59.00
2018-12-21T17:03:34.811Z,59.53
2018-12-21T17:06:02.252Z,59.36
2018-12-21T17:08:29.749Z,58.90
2018-12-21T17:10:57.130Z,59.43
2018-12-21T17:13:24.896Z,58.94
2018-12-21T17:15:52.764Z,58.39
2018-12-21T17:18:20.230Z,58.21
2018-12-21T17:20:47.642Z,58.28
2018-12-21T17:23:15.519Z,57.87
2018-12-21T17:25:42.925Z,58.39
2018-12-21T17:28:10.484Z,58.09
2018-12-21T17:30:37.921Z,58.21
2018-12-21T17:33:05.434Z,57.80
2018-12-21T17:35:33.131Z,58.53
2018-12-21T17:38:00.598Z,58.37
2018-12-21T17:40:28.228Z,58.36
2018-12-21T17:42:55.772Z,58.24
2018-12-21T17:45:23.159Z,58.52
2018-12-21T17:47:50.544Z,59.06
2018-12-21T17:50:17.992Z,59.24
2018-12-21T17:52:45.466Z,59.69
2018-12-21T17:55:12.984Z,60.06
2018-12-21T17:57:40.495Z,60.18
2018-12-21T18:00:12.698Z,60.24
2018-12-21T18:02:40.532Z,60.78
2018-12-21T18:05:08.280Z,60.85
2018-12-21T18:07:35.675Z,60.95
2018-12-21T18:10:05.841Z,60.94
2018-12-21T18:12:33.243Z,60.64
2018-12-21T18:15:01.039Z,60.91
2018-12-21T18:17:28.581Z,60.71
2018-12-21T18:19:56.041Z,60.71
2018-12-21T18:22:23.876Z,60.90
2018-12-21T18:24:51.300Z,60.83
2018-12-21T18:27:18.697Z,60.88
2018-12-21T18:29:46.449Z,61.11
2018-12-21T18:32:16.143Z,61.19
2018-12-21T18:34:43.688Z,61.08
2018-12-21T18:37:11.674Z,61.21
2018-12-21T18:39:39.430Z,61.29
2018-12-21T18:42:06.872Z,61.09
2018-12-21T18:44:34.840Z,61.52
2018-12-21T18:47:02.325Z,61.72
2018-12-21T18:49:30.075Z,61.75
2018-12-21T18:51:59.746Z,62.73
2018-12-21T18:54:27.038Z,62.75
2018-12-21T18:56:54.901Z,63.35
2018-12-21T18:59:22.342Z,62.71
2018-12-21T19:01:49.734Z,62.20
2018-12-21T19:04:17.133Z,62.12
2018-12-21T19:06:44.524Z,61.98
2018-12-21T19:09:12.361Z,61.97
2018-12-21T19:11:40.058Z,61.67
2018-12-21T19:14:07.460Z,62.12
2018-12-21T19:16:34.973Z,61.86
2018-12-21T19:19:02.427Z,61.70
2018-12-21T19:21:29.906Z,62.13
2018-12-21T19:23:57.480Z,62.75
2018-12-21T19:26:25.216Z,64.43
2018-12-21T19:28:52.677Z,64.76
2018-12-21T19:31:20.198Z,65.12
2018-12-21T19:33:47.630Z,65.21
2018-12-21T19:36:15.265Z,65.05
2018-12-21T19:38:42.816Z,64.86
2018-12-21T19:41:11.912Z,64.76
2018-12-21T19:43:39.728Z,65.17
2018-12-21T19:46:07.116Z,64.81
2018-12-21T19:48:34.519Z,64.22
2018-12-21T19:51:01.974Z,64.52
2018-12-21T19:53:29.364Z,64.73
2018-12-21T19:55:56.846Z,64.53
2018-12-21T19:58:24.371Z,64.78
2018-12-21T20:00:51.801Z,65.05
2018-12-21T20:03:19.248Z,65.32
2018-12-21T20:05:46.760Z,65.25
2018-12-21T20:08:14.220Z,65.50
2018-12-21T20:10:41.608Z,65.72
2018-12-21T20:13:09.006Z,65.74
2018-12-21T20:15:36.462Z,65.56
2018-12-21T20:18:03.933Z,65.43
2018-12-21T20:20:31.480Z,65.63
2018-12-21T20:22:58.905Z,65.34
2018-12-21T20:25:26.723Z,65.29
2018-12-21T20:27:54.227Z,65.31
2018-12-21T20:30:21.710Z,65.13
2018-12-21T20:32:49.106Z,65.36
2018-12-21T20:35:16.668Z,64.96
2018-12-21T20:37:44.059Z,65.03
2018-12-21T20:40:12.612Z,64.96
2018-12-21T20:42:40.041Z,64.61
2018-12-21T20:45:10.329Z,64.69
2018-12-21T20:47:37.848Z,64.67
2018-12-21T20:50:11.451Z,64.61
2018-12-21T20:52:38.912Z,64.46
2018-12-21T20:55:09.240Z,64.15
2018-12-21T20:57:39.564Z,64.06
2018-12-21T21:00:11.563Z,64.10
2018-12-21T21:02:39.117Z,63.38
2018-12-21T21:05:06.634Z,63.26
2018-12-21T21:07:34.307Z,63.00
2018-12-21T21:10:01.779Z,62.89
2018-12-21T21:12:29.244Z,63.10
2018-12-21T21:14:56.633Z,63.16
2018-12-21T21:17:24.554Z,63.40
2018-12-21T21:19:52.000Z,62.82
2018-12-21T21:22:19.478Z,63.03
2018-12-21T21:24:47.339Z,62.89
2018-12-21T21:27:14.805Z,62.72
2018-12-21T21:29:42.790Z,62.73
2018-12-21T21:32:10.334Z,62.73
2018-12-21T21:34:37.770Z,62.83
2018-12-21T21:37:05.241Z,62.95
2018-12-21T21:39:32.624Z,62.92
2018-12-21T21:42:00.016Z,63.00
2018-12-21T21:44:27.600Z,63.06
2018-12-21T21:46:55.064Z,63.10
2018-12-21T21:49:22.453Z,63.23
2018-12-21T21:51:50.173Z,63.54
2018-12-21T21:54:17.561Z,63.52
2018-12-21T21:56:44.966Z,63.29
2018-12-21T21:59:12.488Z,63.23
2018-12-21T22:01:39.979Z,63.21
2018-12-21T22:04:07.693Z,63.63
2018-12-21T22:06:35.138Z,63.36
2018-12-21T22:09:02.521Z,63.20
2018-12-21T22:11:30.176Z,63.80
2018-12-21T22:13:57.936Z,63.90
2018-12-21T22:16:25.785Z,63.65
2018-12-21T22:18:53.374Z,63.75
2018-12-21T22:21:20.843Z,63.73
2018-12-21T22:23:48.319Z,64.07
2018-12-21T22:26:15.710Z,64.00
2018-12-21T22:28:43.469Z,64.06
2018-12-21T22:31:11.069Z,64.38
2018-12-21T22:33:38.805Z,64.30
2018-12-21T22:36:06.196Z,64.33
2018-12-21T22:38:33.726Z,64.61
2018-12-21T22:41:02.003Z,64.68
2018-12-21T22:43:29.862Z,64.38
2018-12-21T22:45:57.248Z,64.51
2018-12-21T22:48:24.900Z,64.83
2018-12-21T22:50:52.508Z,65.12
2018-12-21T22:53:20.021Z,65.07
2018-12-21T22:55:47.560Z,64.94
2018-12-21T22:58:14.945Z,64.92
2018-12-21T23:00:42.928Z,65.00
2018-12-21T23:03:10.347Z,65.11
2018-12-21T23:05:37.801Z,64.90
2018-12-21T23:08:05.312Z,64.50
2018-12-21T23:10:33.906Z,64.67
2018-12-21T23:13:01.295Z,64.85
2018-12-21T23:15:28.853Z,64.82
2018-12-21T23:17:56.452Z,64.45
2018-12-21T23:20:23.891Z,64.76
2018-12-21T23:22:51.328Z,64.38
2018-12-21T23:25:18.723Z,64.59
2018-12-21T23:27:46.553Z,64.21
2018-12-21T23:30:13.949Z,64.36
2018-12-21T23:32:41.488Z,64.22
2018-12-21T23:35:08.924Z,64.19
2018-12-21T23:37:36.371Z,64.19
2018-12-21T23:40:05.069Z,63.82
2018-12-21T23:42:32.462Z,63.80
2018-12-21T23:44:59.971Z,63.80
2018-12-21T23:47:27.565Z,63.45
2018-12-21T23:49:55.302Z,63.95
2018-12-21T23:52:22.762Z,63.45
2018-12-21T23:54:50.148Z,63.75
2018-12-21T23:57:17.542Z,63.64
2018-12-21T23:59:44.946Z,63.90
